Terminal Aerodrome Forecast
Issued by NWS Omaha/Valley, NE

Home | Current Version | Previous Version | Text Only | Print | Product List | Glossary On
Versions: 1 2 3 4 5 6 7 8 9 10 11 12 13 14 15 16 17 18 19 20 21 22 23 24 25 26 27
000
FTUS43 KOAX 251120
TAFLNK
TAF
KLNK 251120Z 2512/2612 34023G33KT P6SM OVC015
     FM251800 35018G28KT P6SM OVC025
     FM252200 35013KT P6SM OVC040
     FM260100 34005KT P6SM OVC060
     FM260600 20005KT P6SM SCT250=

USA.gov is the U.S. government's official web portal to all federal, state and local government web resources and services.